Paris-Orly Airport

LFPO · Essonne, Isla de Francia, Francia

METAR pasados LFPO · Aeropuerto París-Orly

A continuación puedes ver los METAR de los últimos días. Selecciona un año para ver los METAR más antiguos, desde el año 2007 en adelante.

25 de mayo de 2024

Hora Código Tiempo Temp. Visibilidad Cielo nuboso Viento METAR/SPECI
14:00
V
20 °C 10 km+ - 090° 090° 5 kt METAR LFPO 251200Z 09005KT 040V140 9999 SCT033 20/13 Q1018 NOSIG
13:30
V
19 °C 10 km+ - 090° 090° 5 kt METAR LFPO 251130Z 09005KT 020V140 9999 SCT033 19/11 Q1018 NOSIG
13:00
V
19 °C 10 km+ - 090° 090° 6 kt METAR LFPO 251100Z 09006KT 050V130 9999 SCT030 19/12 Q1018 NOSIG
12:30
V
19 °C 10 km+ - 110° 110° 6 kt METAR LFPO 251030Z 11006KT 050V170 9999 SCT026 19/11 Q1018 NOSIG
12:00
V
17 °C 10 km+ - 090° 090° 7 kt METAR LFPO 251000Z 09007KT 050V140 9999 SCT018 17/12 Q1019 BECMG CAVOK
11:30
M
16 °C 6 km - 090° 090° 7 kt METAR LFPO 250930Z 09007KT 050V130 6000 SCT015 16/12 Q1019 BECMG CAVOK
11:00
M
16 °C 6 km - 110° 110° 4 kt METAR LFPO 250900Z 11004KT 050V160 6000 SCT012 16/12 Q1019 BECMG CAVOK
10:30
M
15 °C 6 km 1.000 ft 120° 120° 5 kt METAR LFPO 250830Z 12005KT 080V170 6000 BKN010 15/12 Q1019 BECMG CAVOK
10:00
M
15 °C 6 km 1.100 ft 100° 100° 5 kt METAR LFPO 250800Z 10005KT 060V140 6000 BKN011 15/12 Q1019 NOSIG
09:30
M
15 °C 10 km+ 1.000 ft 090° 090° 5 kt METAR LFPO 250730Z 09005KT 060V120 9999 BKN010 15/12 Q1019 NOSIG
09:00
V
15 °C 10 km+ - 100° 100° 4 kt METAR LFPO 250700Z 10004KT 040V150 CAVOK 15/12 Q1018 NOSIG
08:30
V
15 °C 10 km+ - Var Var 2 kt METAR LFPO 250630Z VRB02KT CAVOK 15/11 Q1018 NOSIG
08:00
V
13 °C 10 km+ - 360° 360° 0 kt METAR LFPO 250600Z 00000KT CAVOK 13/11 Q1018 NOSIG
07:30
V
12 °C 10 km+ - 360° 360° 3 kt METAR LFPO 250530Z 36003KT 330V030 CAVOK 12/11 Q1018 NOSIG
07:00
V
11 °C 10 km+ - 330° 330° 3 kt METAR LFPO 250500Z AUTO 33003KT 9999 FEW012 11/10 Q1018 TEMPO 3000 BR BKN005
06:30
V
10 °C 10 km+ - 340° 340° 3 kt METAR LFPO 250430Z AUTO 34003KT 290V060 9999 FEW013 10/09 Q1018 TEMPO 3000 BR BKN005
06:00
I
10 °C 4,3 km - 330° 330° 4 kt METAR LFPO 250400Z AUTO 33004KT 9999 4300 NSC 10/10 Q1018 TEMPO 3000 BR BKN005
05:30
I
10 °C 4,9 km - 340° 340° 2 kt METAR LFPO 250330Z AUTO 34002KT 9999 4900 NSC 10/09 Q1018 TEMPO 3000 BR BKN005
05:00
V
9 °C 9 km - 360° 360° 0 kt METAR LFPO 250300Z AUTO 00000KT 9000 NSC 09/08 Q1019 TEMPO 3000 BR BKN005
04:30
V
9 °C 10 km+ - 250° 250° 3 kt METAR LFPO 250230Z AUTO 25003KT CAVOK 09/07 Q1019 TEMPO 3000 BR BKN005
04:00
I
10 °C 4,9 km - 280° 280° 2 kt METAR LFPO 250200Z AUTO 28002KT 9999 4900 NSC 10/08 Q1019 TEMPO 3000 BR BKN005
03:30
V
11 °C 10 km+ - 350° 350° 1 kt METAR LFPO 250130Z AUTO 35001KT CAVOK 11/10 Q1019 TEMPO 3000 BR BKN005
03:00
V
11 °C 10 km+ - Var Var 2 kt METAR LFPO 250100Z AUTO VRB02KT CAVOK 11/10 Q1019 NOSIG
02:30
V
11 °C 10 km+ - 340° 340° 3 kt METAR LFPO 250030Z AUTO 34003KT CAVOK 11/09 Q1019 NOSIG
02:00
V
12 °C 10 km+ - 330° 330° 4 kt METAR LFPO 250000Z AUTO 33004KT CAVOK 12/10 Q1019 NOSIG
01:30
V
12 °C 10 km+ - 320° 320° 2 kt METAR LFPO 242330Z AUTO 32002KT CAVOK 12/10 Q1019 NOSIG
01:00
V
12 °C 10 km+ - 330° 330° 3 kt METAR LFPO 242300Z AUTO 33003KT CAVOK 12/10 Q1019 NOSIG
00:30
V
12 °C 10 km+ - 340° 340° 3 kt METAR LFPO 242230Z AUTO 34003KT CAVOK 12/11 Q1019 NOSIG
00:00
V
12 °C 10 km+ - 340° 340° 1 kt METAR LFPO 242200Z AUTO 34001KT CAVOK 12/11 Q1019 NOSIG

24 de mayo de 2024

Hora Código Tiempo Temp. Visibilidad Cielo nuboso Viento METAR/SPECI
23:30
V
13 °C 10 km+ 5.600 ft Var Var 1 kt METAR LFPO 242130Z AUTO VRB01KT 9999 FEW041 BKN056 BKN240 13/10 Q1019 NOSIG
23:00
V
13 °C 10 km+ 5.200 ft Var Var 1 kt METAR LFPO 242100Z AUTO VRB01KT 9999 SCT045/// BKN052/// BKN064/// ///TCU 13/11 Q1019 BECMG SCT040
22:30
V
14 °C 10 km+ 4.600 ft Var Var 2 kt METAR LFPO 242030Z AUTO VRB02KT 9999 SCT038/// BKN046/// BKN052/// ///CB 14/12 Q1019 BECMG SCT040
22:00
V
14 °C 10 km+ 4.300 ft 110° 110° 4 kt METAR LFPO 242000Z AUTO 11004KT 080V140 9999 SCT036/// BKN043/// BKN054/// ///CB 14/12 Q1019 BECMG 35010KT SCT040
21:30
V
15 °C 10 km+ 3.500 ft 100° 100° 8 kt METAR LFPO 241930Z AUTO 10008KT 9999 FEW025/// BKN035/// BKN041/// ///CB 15/13 Q1019 BECMG 35010KT SCT040
21:00
M
15 °C 10 km+ 2.300 ft 080° 080° 8 kt METAR LFPO 241900Z AUTO 08008KT 9999 FEW017/// BKN023/// BKN032/// //////CB 15/12 Q1019 BECMG 32010KT SCT040
20:30
V
15 °C 10 km+ 3.200 ft 130° 130° 10 kt METAR LFPO 241830Z AUTO 13010KT 9999 FEW017/// SCT026/// BKN032/// //////CB 15/12 Q1019 BECMG 32010KT SCT040
20:00
V
16 °C 10 km+ 4.000 ft 360° 360° 7 kt METAR LFPO 241800Z AUTO 36007KT 330V040 9999 VCTS FEW031/// BKN040/// BKN049/// ///CB 16/11 Q1019 BECMG NSW
19:30
V
18 °C 10 km+ 5.600 ft 330° 330° 10 kt METAR LFPO 241730Z AUTO 33010KT 9999 SCT041/// BKN056/// BKN076/// //////CB 18/11 Q1018 TEMPO 2500 -TSRA
19:00
V
19 °C 10 km+ - 330° 330° 10 kt METAR LFPO 241700Z 33010KT 300V360 9999 FEW040 FEW043TCU FEW053CB 19/11 Q1018 NOSIG
18:30
V
19 °C 10 km+ - 340° 340° 9 kt METAR LFPO 241630Z 34009KT 310V050 9999 SCT040 FEW043TCU FEW053CB SCT100 19/11 Q1018 NOSIG
18:00
V
20 °C 10 km+ - 340° 340° 10 - 21 kt METAR LFPO 241600Z 34010G21KT 300V010 9999 SCT044 FEW056CB SCT100 20/11 Q1017 NOSIG
17:30
V
20 °C 10 km+ - 340° 340° 7 kt METAR LFPO 241530Z 34007KT 320V020 9999 SCT042 FEW050TCU SCT110 20/12 Q1017 NOSIG
17:00
V
20 °C 10 km+ - 320° 320° 8 kt METAR LFPO 241500Z 32008KT 290V350 9999 SCT036 FEW050TCU SCT110 20/12 Q1017 TEMPO 4000 -SHRA
16:30
V
19 °C 10 km+ 4.600 ft 330° 330° 9 kt METAR LFPO 241430Z 33009KT 290V010 9999 SCT040 BKN046 FEW066TCU BKN100 19/11 Q1018 TEMPO -SHRA SCT030CB
16:00
V
19 °C 10 km+ 5.500 ft 360° 360° 8 kt METAR LFPO 241400Z 36008KT 310V030 9999 SCT041 BKN055 BKN110 19/11 Q1018 TEMPO -SHRA SCT030CB
15:30
V
19 °C 10 km+ 7.000 ft 320° 320° 9 kt METAR LFPO 241330Z 32009KT 300V010 9999 SCT040 BKN070 19/11 Q1018 TEMPO -SHRA SCT030CB
15:00
V
19 °C 10 km+ 7.300 ft 360° 360° 5 kt METAR LFPO 241300Z 36005KT 310V050 9999 SCT040 BKN073 19/11 Q1018 TEMPO -SHRA SCT030CB
14:30
V
19 °C 10 km+ 4.200 ft 320° 320° 5 kt METAR LFPO 241230Z 32005KT 270V030 9999 BKN042 BKN100 19/11 Q1018 TEMPO SHRA SCT030CB
14:13
V
21 °C 10 km+ 4.000 ft 330° 330° 5 kt METAR LFPO 241213Z 33005KT 270V050 9999 BKN040 BKN110 21/11 Q1018 TEMPO SHRA SCT30CB
14:00
V
20 °C 10 km+ 4.000 ft 320° 320° 5 kt METAR LFPO 241200Z 32005KT 240V030 9999 BKN040 BKN110 20/11 Q1018 TEMPO -SHRA SCT30CB
13:30
V
19 °C 10 km+ 3.800 ft Var Var 3 kt METAR LFPO 241130Z VRB03KT 9999 BKN038 BKN110 19/11 Q1018 NOSIG
13:00
V
19 °C 10 km+ 3.300 ft 030° 030° 5 kt METAR LFPO 241100Z 03005KT 330V080 9999 BKN033 BKN110 19/11 Q1018 NOSIG
12:30
V
18 °C 10 km+ 11.000 ft 010° 010° 5 kt METAR LFPO 241030Z 01005KT 310V110 9999 FEW021 BKN110 18/11 Q1019 NOSIG
12:00
V
17 °C 10 km+ 11.000 ft 020° 020° 6 kt METAR LFPO 241000Z 02006KT 320V090 9999 FEW030 BKN110 17/10 Q1019 NOSIG
11:30
V
17 °C 10 km+ 11.000 ft 030° 030° 5 kt METAR LFPO 240930Z 03005KT 330V070 9999 FEW043 BKN110 17/11 Q1019 NOSIG
11:00
V
16 °C 10 km+ 11.000 ft 010° 010° 6 kt METAR LFPO 240900Z 01006KT 340V040 9999 FEW043 BKN110 16/10 Q1019 NOSIG
10:30
V
16 °C 10 km+ 10.000 ft 010° 010° 6 kt METAR LFPO 240830Z 01006KT 340V050 9999 FEW032 SCT044 BKN100 16/11 Q1019 NOSIG
10:00
V
15 °C 10 km+ 10.000 ft 010° 010° 7 kt METAR LFPO 240800Z 01007KT 9999 FEW032 BKN100 15/10 Q1019 NOSIG
09:30
V
15 °C 10 km+ 10.000 ft 010° 010° 8 kt METAR LFPO 240730Z 01008KT 340V040 9999 FEW031 BKN100 15/10 Q1019 NOSIG
09:00
V
14 °C 10 km+ 10.000 ft 360° 360° 7 kt METAR LFPO 240700Z 36007KT 9999 FEW026 SCT083 BKN100 14/10 Q1018 NOSIG
08:30
V
14 °C 10 km+ 10.000 ft 360° 360° 7 kt METAR LFPO 240630Z 36007KT 330V040 9999 FEW028 SCT073 BKN100 14/11 Q1018 NOSIG
08:00
V
13 °C 10 km+ 10.000 ft 350° 350° 6 kt METAR LFPO 240600Z 35006KT 320V050 9999 FEW026 SCT076 BKN100 13/12 Q1018 NOSIG
07:30
V
13 °C 10 km+ 10.000 ft 350° 350° 5 kt METAR LFPO 240530Z 35005KT 320V060 9999 FEW025 SCT074 BKN100 13/11 Q1018 NOSIG
07:00
V
12 °C 10 km+ 10.000 ft 340° 340° 6 kt METAR LFPO 240500Z AUTO 34006KT 320V090 9999 FEW013 SCT040 BKN100 12/12 Q1018 TEMPO 4000 BR BKN005
06:30
M
11 °C 10 km+ 1.200 ft 330° 330° 5 kt METAR LFPO 240430Z AUTO 33005KT 9999 BKN012 OVC092 11/10 Q1018 TEMPO 4000 BR BKN005
06:00
V
11 °C 10 km+ 9.200 ft 330° 330° 4 kt METAR LFPO 240400Z AUTO 33004KT 9999 FEW012 SCT017 BKN092 11/10 Q1018 TEMPO 4000 BR BKN005
05:30
V
11 °C 10 km+ 8.400 ft 300° 300° 4 kt METAR LFPO 240330Z AUTO 30004KT 9999 FEW015 BKN084 BKN100 11/11 Q1018 TEMPO 4000 BR BKN005
05:00
V
10 °C 10 km+ - 310° 310° 4 kt METAR LFPO 240300Z AUTO 31004KT CAVOK 10/09 Q1018 TEMPO 4000 BR BKN005
04:30
V
11 °C 10 km+ - 310° 310° 3 kt METAR LFPO 240230Z AUTO 31003KT CAVOK 11/10 Q1017 TEMPO 4000 BR BKN005
04:00
V
11 °C 10 km+ - 250° 250° 4 kt METAR LFPO 240200Z AUTO 25004KT CAVOK 11/10 Q1017 NOSIG
03:30
V
12 °C 10 km+ - Var Var 2 kt METAR LFPO 240130Z AUTO VRB02KT CAVOK 12/11 Q1017 NOSIG
03:00
V
12 °C 10 km+ - 250° 250° 3 kt METAR LFPO 240100Z AUTO 25003KT CAVOK 12/11 Q1017 NOSIG
02:30
V
12 °C 10 km+ - Var Var 2 kt METAR LFPO 240030Z AUTO VRB02KT CAVOK 12/11 Q1017 NOSIG
02:00
V
12 °C 10 km+ - 360° 360° 0 kt METAR LFPO 240000Z AUTO 00000KT CAVOK 12/11 Q1017 NOSIG
01:30
V
13 °C 10 km+ - 270° 270° 2 kt METAR LFPO 232330Z AUTO 27002KT CAVOK 13/11 Q1017 NOSIG
01:00
V
14 °C 10 km+ - 190° 190° 2 kt METAR LFPO 232300Z AUTO 19002KT CAVOK 14/12 Q1018 NOSIG
00:30
V
14 °C 10 km+ - 210° 210° 4 kt METAR LFPO 232230Z AUTO 21004KT CAVOK 14/12 Q1018 NOSIG
00:00
V
14 °C 10 km+ - 210° 210° 3 kt METAR LFPO 232200Z AUTO 21003KT CAVOK 14/12 Q1018 TEMPO 4000 SHRA BKN030TCU

23 de mayo de 2024

Hora Código Tiempo Temp. Visibilidad Cielo nuboso Viento METAR/SPECI
23:30
V
15 °C 10 km+ - 220° 220° 4 kt METAR LFPO 232130Z AUTO 22004KT CAVOK 15/12 Q1018 TEMPO 4000 SHRA BKN030TCU
23:00
V
15 °C 10 km+ - 210° 210° 4 kt METAR LFPO 232100Z AUTO 21004KT CAVOK 15/12 Q1018 TEMPO 4000 SHRA BKN030TCU
22:30
V
15 °C 10 km+ - 210° 210° 4 kt METAR LFPO 232030Z AUTO 21004KT CAVOK 15/12 Q1017 TEMPO 4000 SHRA BKN030TCU
22:00
V
15 °C 10 km+ - 230° 230° 5 kt METAR LFPO 232000Z AUTO 23005KT CAVOK 15/11 Q1017 TEMPO 4000 SHRA BKN030TCU
21:30
V
15 °C 10 km+ - 190° 190° 3 kt METAR LFPO 231930Z AUTO 19003KT 170V230 CAVOK 15/12 Q1017 TEMPO 4000 SHRA BKN030TCU
21:00
V
15 °C 10 km+ - 180° 180° 3 kt METAR LFPO 231900Z AUTO 18003KT CAVOK 15/12 Q1016 TEMPO 4000 SHRA BKN030TCU
20:30
V
15 °C 10 km+ - 170° 170° 3 kt METAR LFPO 231830Z AUTO 17003KT 140V200 CAVOK 15/13 Q1016 TEMPO 4000 SHRA BKN030TCU
20:00
V
16 °C 10 km+ - 220° 220° 5 kt METAR LFPO 231800Z AUTO 22005KT 190V250 CAVOK 16/12 Q1016 TEMPO 4000 SHRA BKN030TCU
19:30
V
16 °C 10 km+ - Var Var 3 kt METAR LFPO 231730Z AUTO VRB03KT CAVOK 16/12 Q1016 TEMPO VRB15G25KT 4000 SHRA BKN030TCU
19:00
V
16 °C 10 km+ 8.300 ft 250° 250° 3 kt METAR LFPO 231700Z 25003KT 9999 FEW043TCU BKN083 16/12 Q1016 TEMPO 4000 SHRA BKN040TCU
18:30
V
15 °C 10 km+ 8.300 ft 270° 270° 6 kt METAR LFPO 231630Z 27006KT 9999 FEW043TCU BKN083 15/11 Q1016 TEMPO 4000 SHRA BKN040TCU
18:00
V
15 °C 10 km+ - 230° 230° 5 kt METAR LFPO 231600Z 23005KT 9999 SCT043TCU FEW045CB 15/11 Q1016 TEMPO 4000 SHRA BKN040TCU
17:30
V
15 °C 10 km+ - 200° 200° 9 kt METAR LFPO 231530Z 20009KT 170V240 9999 SCT043TCU FEW045CB 15/11 Q1016 TEMPO 4000 SHRA BKN040TCU
17:00
V
15 °C 10 km+ - 170° 170° 14 kt METAR LFPO 231500Z 17014KT 9999 SCT043TCU FEW045CB 15/12 Q1016 TEMPO 3000 -TSRA BKN035CB
16:30
V
17 °C 8 km - 170° 170° 10 kt METAR LFPO 231430Z 17010KT 8000 -SHRA SCT043TCU FEW045CB 17/12 Q1016 TEMPO 3000 -TSRA BKN035CB
16:00
V
19 °C 10 km+ - Var Var 2 kt METAR LFPO 231400Z VRB02KT 9999 VCSH SCT043TCU FEW045CB 19/10 Q1016 TEMPO 3000 -TSRA BKN035CB
15:30
V
19 °C 10 km+ - Var Var 2 kt METAR LFPO 231330Z VRB02KT 9999 SCT043TCU FEW045CB 19/11 Q1016 TEMPO 3000 -TSRA BKN035CB
15:00
V
20 °C 10 km+ - Var Var 3 kt METAR LFPO 231300Z VRB03KT 9999 SCT036TCU FEW040CB 20/09 Q1016 TEMPO 3000 -TSRA BKN035CB
14:30
V
20 °C 10 km+ - Var Var 2 kt METAR LFPO 231230Z VRB02KT 9999 SCT036TCU SCT053 20/10 Q1016 TEMPO 3000 -TSRA BKN035CB
14:00
V
19 °C 10 km+ 5.300 ft Var Var 3 kt METAR LFPO 231200Z VRB03KT 9999 SCT035TCU BKN053 19/11 Q1016 TEMPO 3000 SHRA BKN030CB
13:30
V
18 °C 10 km+ 5.300 ft 260° 260° 5 kt METAR LFPO 231130Z 26005KT 220V310 9999 SCT034TCU BKN053 18/11 Q1017 TEMPO 3000 SHRA BKN030CB
13:00
V
17 °C 10 km+ 5.300 ft 240° 240° 6 kt METAR LFPO 231100Z 24006KT 210V270 9999 SCT035TCU BKN053 17/10 Q1017 TEMPO 3000 SHRA BKN030CB
12:30
V
17 °C 10 km+ 5.300 ft 270° 270° 5 kt METAR LFPO 231030Z 27005KT 220V320 9999 SCT033TCU BKN053 17/11 Q1017 TEMPO 3000 SHRA BKN030CB
12:00
V
17 °C 10 km+ 5.300 ft 250° 250° 5 kt METAR LFPO 231000Z 25005KT 180V320 9999 SCT031TCU BKN053 17/10 Q1017 TEMPO 4000 SHRA
11:30
V
18 °C 10 km+ 5.300 ft 240° 240° 6 kt METAR LFPO 230930Z 24006KT 210V280 9999 SCT030TCU BKN053 18/11 Q1017 NOSIG
11:00
V
16 °C 10 km+ 5.300 ft 240° 240° 3 kt METAR LFPO 230900Z 24003KT 150V310 9999 SCT036 BKN053 16/10 Q1017 NOSIG
10:30
V
16 °C 10 km+ 7.300 ft 260° 260° 4 kt METAR LFPO 230830Z 26004KT 230V300 9999 SCT043 BKN073 16/11 Q1017 NOSIG
10:00
V
15 °C 10 km+ - 270° 270° 4 kt METAR LFPO 230800Z 27004KT 220V300 CAVOK 15/10 Q1017 NOSIG
09:30
V
15 °C 10 km+ 4.600 ft 270° 270° 5 kt METAR LFPO 230730Z 27005KT 9999 BKN046 BKN100 15/11 Q1016 NOSIG
09:00
V
14 °C 10 km+ 4.800 ft 250° 250° 4 kt METAR LFPO 230700Z 25004KT 220V290 9999 BKN048 BKN080 14/11 Q1016 NOSIG
08:30
V
14 °C 10 km+ 8.000 ft 250° 250° 4 kt METAR LFPO 230630Z 25004KT 230V310 9999 FEW040 BKN080 14/11 Q1016 NOSIG
08:00
V
13 °C 10 km+ 10.000 ft 250° 250° 4 kt METAR LFPO 230600Z 25004KT 230V300 9999 SCT036 BKN100 13/11 Q1016 NOSIG
Cambiar esta información